createdAt,value
2023-05-21T00:00:45.556Z,5.32
2023-05-21T00:03:14.032Z,5.10
2023-05-21T00:05:41.701Z,5.13
2023-05-21T00:08:11.307Z,5.88
2023-05-21T00:10:38.629Z,5.30
2023-05-21T00:13:05.844Z,5.80
2023-05-21T00:15:33.275Z,5.70
2023-05-21T00:18:00.787Z,5.93
2023-05-21T00:20:29.347Z,5.60
2023-05-21T00:22:56.723Z,5.63
2023-05-21T00:25:24.117Z,5.55
2023-05-21T00:27:51.433Z,6.07
2023-05-21T00:30:18.760Z,5.00
2023-05-21T00:32:46.012Z,5.57
2023-05-21T00:35:13.437Z,5.70
2023-05-21T00:37:40.872Z,5.75
2023-05-21T00:40:09.242Z,5.13
2023-05-21T00:42:39.424Z,5.43
2023-05-21T00:45:07.947Z,5.22
2023-05-21T00:47:36.202Z,5.38
2023-05-21T00:50:04.618Z,5.43
2023-05-21T00:52:41.450Z,6.68
2023-05-21T00:55:10.039Z,5.55
2023-05-21T00:57:37.529Z,5.68
2023-05-21T01:00:08.759Z,5.40
2023-05-21T01:02:37.304Z,4.90
2023-05-21T01:05:09.009Z,5.50
2023-05-21T01:07:41.650Z,6.55
2023-05-21T01:10:11.463Z,5.63
2023-05-21T01:12:41.640Z,5.50
2023-05-21T01:15:11.994Z,5.93
2023-05-21T01:17:39.975Z,5.57
2023-05-21T01:20:11.306Z,5.65
2023-05-21T01:22:44.315Z,5.70
2023-05-21T01:25:12.134Z,5.63
2023-05-21T01:27:39.411Z,6.10
2023-05-21T01:30:08.449Z,5.75
2023-05-21T01:32:56.141Z,6.20
2023-05-21T01:35:29.531Z,5.55
2023-05-21T01:40:39.919Z,5.82
2023-05-21T01:43:09.396Z,5.70
2023-05-21T01:45:48.514Z,6.13
2023-05-21T01:48:22.175Z,6.38
2023-05-21T01:50:55.190Z,6.00
2023-05-21T01:53:22.454Z,6.30
2023-05-21T01:55:52.053Z,6.35
2023-05-21T01:58:21.143Z,6.80
2023-05-21T02:00:52.981Z,6.25
2023-05-21T02:03:21.755Z,5.75
2023-05-21T02:05:52.149Z,6.38
2023-05-21T02:08:23.360Z,6.05
2023-05-21T02:10:51.328Z,6.10
2023-05-21T02:13:24.278Z,6.05
2023-05-21T02:15:54.788Z,6.45
2023-05-21T02:18:23.121Z,6.30
2023-05-21T02:20:50.517Z,6.07
2023-05-21T02:23:17.836Z,6.05
2023-05-21T02:25:45.064Z,5.97
2023-05-21T02:28:12.778Z,6.68
2023-05-21T02:30:40.199Z,6.50
2023-05-21T02:33:09.158Z,7.03
2023-05-21T02:35:36.860Z,6.80
2023-05-21T02:38:09.212Z,6.28
2023-05-21T02:40:36.655Z,6.35
2023-05-21T02:43:04.075Z,6.00
2023-05-21T02:45:35.132Z,6.85
2023-05-21T02:48:02.725Z,6.40
2023-05-21T02:50:33.116Z,7.22
2023-05-21T02:53:00.545Z,6.45
2023-05-21T02:55:28.989Z,6.60
2023-05-21T02:57:58.529Z,6.38
2023-05-21T03:00:26.081Z,7.55
2023-05-21T03:02:53.598Z,6.13
2023-05-21T03:05:21.399Z,7.13
2023-05-21T03:07:48.677Z,6.95
2023-05-21T03:10:16.036Z,6.65
2023-05-21T03:12:43.351Z,6.43
2023-05-21T03:15:14.887Z,6.90
2023-05-21T03:17:42.416Z,7.10
2023-05-21T03:20:16.129Z,6.57
2023-05-21T03:22:44.877Z,6.38
2023-05-21T03:25:13.072Z,6.68
2023-05-21T03:27:40.457Z,6.60
2023-05-21T03:30:18.849Z,6.22
2023-05-21T03:33:07.739Z,6.50
2023-05-21T03:35:37.979Z,6.75
2023-05-21T03:38:05.786Z,6.93
2023-05-21T03:40:33.128Z,7.05
2023-05-21T03:43:00.838Z,6.57
2023-05-21T03:45:28.092Z,6.85
2023-05-21T03:48:15.921Z,6.68
2023-05-21T03:50:43.354Z,6.72
2023-05-21T03:53:10.953Z,6.35
2023-05-21T03:55:38.510Z,6.75
2023-05-21T03:58:06.153Z,7.70
2023-05-21T04:00:34.493Z,6.45
2023-05-21T04:03:02.079Z,7.10
2023-05-21T04:05:29.540Z,6.60
2023-05-21T04:07:58.776Z,6.65
2023-05-21T04:10:26.920Z,6.50
2023-05-21T04:12:57.067Z,6.57
2023-05-21T04:15:25.687Z,6.18
2023-05-21T04:17:53.225Z,6.75
2023-05-21T04:20:20.967Z,6.20
2023-05-21T04:22:48.804Z,6.63
2023-05-21T04:25:16.162Z,5.97
2023-05-21T04:27:47.618Z,6.05
2023-05-21T04:30:14.989Z,7.13
2023-05-21T04:32:45.764Z,6.22
2023-05-21T04:35:15.292Z,6.68
2023-05-21T04:37:42.837Z,6.53
2023-05-21T04:40:10.588Z,6.80
2023-05-21T04:42:39.088Z,6.70
2023-05-21T04:45:06.998Z,6.38
2023-05-21T04:47:39.775Z,6.50
2023-05-21T04:50:09.800Z,6.88
2023-05-21T04:52:37.312Z,6.55
2023-05-21T04:55:05.378Z,6.63
2023-05-21T04:57:33.243Z,7.00
2023-05-21T05:00:01.946Z,7.97
2023-05-21T05:02:38.128Z,8.05
2023-05-21T05:05:06.600Z,8.05
2023-05-21T05:07:33.871Z,8.05
2023-05-21T05:10:04.392Z,7.25
2023-05-21T05:12:33.244Z,7.43
2023-05-21T05:15:00.667Z,7.68
